sensor_id;sensor_type;location;lat;lon;timestamp;pressure;altitude;pressure_sealevel;temperature;humidity
18784;BME280;9520;50.954;6.968;2023-12-04T00:00:01;100910.69;;;6.93;49.88
18784;BME280;9520;50.954;6.968;2023-12-04T00:00:32;100930.84;;;7.04;49.40
18784;BME280;9520;50.954;6.968;2023-12-04T00:00:54;100919.47;;;7.02;49.52
18784;BME280;9520;50.954;6.968;2023-12-04T00:01:17;100926.47;;;7.07;49.46
18784;BME280;9520;50.954;6.968;2023-12-04T00:01:43;100915.94;;;6.93;49.63
18784;BME280;9520;50.954;6.968;2023-12-04T00:02:05;100922.09;;;7.06;49.51
18784;BME280;9520;50.954;6.968;2023-12-04T00:02:26;100909.84;;;7.04;49.58
18784;BME280;9520;50.954;6.968;2023-12-04T00:02:48;100918.63;;;7.10;49.63
18784;BME280;9520;50.954;6.968;2023-12-04T00:03:11;100916.88;;;7.12;49.45
18784;BME280;9520;50.954;6.968;2023-12-04T00:03:33;100898.47;;;6.99;49.50
18784;BME280;9520;50.954;6.968;2023-12-04T00:03:58;100904.66;;;7.14;49.56
18784;BME280;9520;50.954;6.968;2023-12-04T00:04:20;100912.53;;;7.23;49.21
18784;BME280;9520;50.954;6.968;2023-12-04T00:04:42;100907.28;;;7.19;49.32
18784;BME280;9520;50.954;6.968;2023-12-04T00:05:04;100909.03;;;7.23;49.01
18784;BME280;9520;50.954;6.968;2023-12-04T00:05:27;100914.28;;;7.27;49.24
18784;BME280;9520;50.954;6.968;2023-12-04T00:05:49;100910.75;;;7.21;49.13
18784;BME280;9520;50.954;6.968;2023-12-04T00:06:11;100902.03;;;7.22;49.25
18784;BME280;9520;50.954;6.968;2023-12-04T00:06:33;100906.41;;;7.24;49.40
18784;BME280;9520;50.954;6.968;2023-12-04T00:06:55;100911.66;;;7.30;49.58
18784;BME280;9520;50.954;6.968;2023-12-04T00:07:17;100908.19;;;7.34;49.21
18784;BME280;9520;50.954;6.968;2023-12-04T00:07:39;100909.94;;;7.38;49.05
18784;BME280;9520;50.954;6.968;2023-12-04T00:08:02;100905.56;;;7.37;48.79
18784;BME280;9520;50.954;6.968;2023-12-04T00:08:24;100906.44;;;7.41;48.95
18784;BME280;9520;50.954;6.968;2023-12-04T00:08:45;100907.31;;;7.34;48.91
18784;BME280;9520;50.954;6.968;2023-12-04T00:09:07;100879.28;;;7.21;48.88
18784;BME280;9520;50.954;6.968;2023-12-04T00:09:29;100895.94;;;7.33;48.77
18784;BME280;9520;50.954;6.968;2023-12-04T00:09:51;100904.69;;;7.42;48.32
18784;BME280;9520;50.954;6.968;2023-12-04T00:10:13;100910.81;;;7.42;48.51
18784;BME280;9520;50.954;6.968;2023-12-04T00:10:35;100904.69;;;7.37;48.40
18784;BME280;9520;50.954;6.968;2023-12-04T00:10:57;100907.31;;;7.37;48.65
18784;BME280;9520;50.954;6.968;2023-12-04T00:11:18;100901.19;;;7.36;48.53
18784;BME280;9520;50.954;6.968;2023-12-04T00:11:40;100907.28;;;7.31;48.56
18784;BME280;9520;50.954;6.968;2023-12-04T00:12:03;100900.31;;;7.33;48.32
18784;BME280;9520;50.954;6.968;2023-12-04T00:12:25;100890.69;;;7.38;48.32
18784;BME280;9520;50.954;6.968;2023-12-04T00:12:47;100895.06;;;7.42;48.62
18784;BME280;9520;50.954;6.968;2023-12-04T00:13:08;100906.44;;;7.41;48.57
18784;BME280;9520;50.954;6.968;2023-12-04T00:13:30;100889.81;;;7.42;48.53
18784;BME280;9520;50.954;6.968;2023-12-04T00:13:52;100881.94;;;7.41;48.43
18784;BME280;9520;50.954;6.968;2023-12-04T00:14:15;100891.59;;;7.45;48.48
18784;BME280;9520;50.954;6.968;2023-12-04T00:14:36;100891.56;;;7.43;48.53
18784;BME280;9520;50.954;6.968;2023-12-04T00:14:58;100887.19;;;7.39;48.61
18784;BME280;9520;50.954;6.968;2023-12-04T00:15:20;100886.31;;;7.40;48.77
18784;BME280;9520;50.954;6.968;2023-12-04T00:15:42;100878.47;;;7.38;48.58
18784;BME280;9520;50.954;6.968;2023-12-04T00:16:05;100889.81;;;7.37;49.16
18784;BME280;9520;50.954;6.968;2023-12-04T00:16:27;100886.31;;;7.43;49.02
18784;BME280;9520;50.954;6.968;2023-12-04T00:16:49;100883.69;;;7.35;48.75
18784;BME280;9520;50.954;6.968;2023-12-04T00:17:10;100886.31;;;7.38;48.74
18784;BME280;9520;50.954;6.968;2023-12-04T00:17:33;100882.81;;;7.43;48.67
18784;BME280;9520;50.954;6.968;2023-12-04T00:17:55;100881.09;;;7.38;48.29
18784;BME280;9520;50.954;6.968;2023-12-04T00:18:16;100891.56;;;7.40;48.50
18784;BME280;9520;50.954;6.968;2023-12-04T00:18:38;100885.44;;;7.36;48.38
18784;BME280;9520;50.954;6.968;2023-12-04T00:19:00;100885.44;;;7.43;48.45
18784;BME280;9520;50.954;6.968;2023-12-04T00:19:22;100893.28;;;7.26;48.95
18784;BME280;9520;50.954;6.968;2023-12-04T00:19:43;100886.28;;;7.19;49.03
18784;BME280;9520;50.954;6.968;2023-12-04T00:20:07;100886.31;;;7.28;48.81
18784;BME280;9520;50.954;6.968;2023-12-04T00:20:30;100864.44;;;7.23;48.97
18784;BME280;9520;50.954;6.968;2023-12-04T00:20:52;100881.09;;;7.38;48.99
18784;BME280;9520;50.954;6.968;2023-12-04T00:21:13;100884.56;;;7.45;49.29
18784;BME280;9520;50.954;6.968;2023-12-04T00:21:35;100875.84;;;7.43;49.26
18784;BME280;9520;50.954;6.968;2023-12-04T00:21:57;100884.56;;;7.47;49.20
18784;BME280;9520;50.954;6.968;2023-12-04T00:22:18;100882.84;;;7.53;49.02
18784;BME280;9520;50.954;6.968;2023-12-04T00:22:41;100881.06;;;7.55;49.02
18784;BME280;9520;50.954;6.968;2023-12-04T00:23:04;100861.84;;;7.53;49.03
18784;BME280;9520;50.954;6.968;2023-12-04T00:23:26;100875.84;;;7.58;48.70
18784;BME280;9520;50.954;6.968;2023-12-04T00:23:48;100878.47;;;7.57;48.96
18784;BME280;9520;50.954;6.968;2023-12-04T00:24:10;100881.09;;;7.52;48.84
18784;BME280;9520;50.954;6.968;2023-12-04T00:24:32;100874.09;;;7.50;48.82
18784;BME280;9520;50.954;6.968;2023-12-04T00:24:54;100879.34;;;7.54;48.50
18784;BME280;9520;50.954;6.968;2023-12-04T00:25:15;100874.97;;;7.53;48.56
18784;BME280;9520;50.954;6.968;2023-12-04T00:25:38;100880.22;;;7.52;48.62
18784;BME280;9520;50.954;6.968;2023-12-04T00:26:00;100881.09;;;7.52;48.34
18784;BME280;9520;50.954;6.968;2023-12-04T00:26:21;100881.09;;;7.52;48.41
18784;BME280;9520;50.954;6.968;2023-12-04T00:26:43;100886.34;;;7.58;48.23
18784;BME280;9520;50.954;6.968;2023-12-04T00:27:05;100879.31;;;7.51;48.22
18784;BME280;9520;50.954;6.968;2023-12-04T00:27:26;100874.06;;;7.45;48.19
18784;BME280;9520;50.954;6.968;2023-12-04T00:27:49;100871.47;;;7.44;47.94
18784;BME280;9520;50.954;6.968;2023-12-04T00:28:11;100874.09;;;7.39;47.56
18784;BME280;9520;50.954;6.968;2023-12-04T00:28:35;100873.19;;;7.40;47.64
18784;BME280;9520;50.954;6.968;2023-12-04T00:28:57;100873.22;;;7.34;48.36
18784;BME280;9520;50.954;6.968;2023-12-04T00:29:19;100862.69;;;7.26;48.38
18784;BME280;9520;50.954;6.968;2023-12-04T00:29:41;100878.44;;;7.37;48.95
18784;BME280;9520;50.954;6.968;2023-12-04T00:30:04;100872.31;;;7.41;49.20
18784;BME280;9520;50.954;6.968;2023-12-04T00:30:27;100878.47;;;7.43;48.72
18784;BME280;9520;50.954;6.968;2023-12-04T00:30:49;100878.47;;;7.48;48.86
18784;BME280;9520;50.954;6.968;2023-12-04T00:31:11;100874.94;;;7.50;48.92
18784;BME280;9520;50.954;6.968;2023-12-04T00:31:33;100867.97;;;7.52;48.85
18784;BME280;9520;50.954;6.968;2023-12-04T00:31:55;100868.81;;;7.56;48.28
18784;BME280;9520;50.954;6.968;2023-12-04T00:32:18;100871.44;;;7.51;48.28
18784;BME280;9520;50.954;6.968;2023-12-04T00:32:40;100874.97;;;7.47;47.88
18784;BME280;9520;50.954;6.968;2023-12-04T00:33:02;100868.81;;;7.51;48.08
18784;BME280;9520;50.954;6.968;2023-12-04T00:33:24;100862.72;;;7.52;48.34
18784;BME280;9520;50.954;6.968;2023-12-04T00:33:47;100847.81;;;7.45;47.96
18784;BME280;9520;50.954;6.968;2023-12-04T00:34:09;100860.09;;;7.43;47.68
18784;BME280;9520;50.954;6.968;2023-12-04T00:34:33;100864.47;;;7.55;47.74
18784;BME280;9520;50.954;6.968;2023-12-04T00:34:55;100860.97;;;7.57;47.44
18784;BME280;9520;50.954;6.968;2023-12-04T00:35:17;100867.97;;;7.43;47.88
18784;BME280;9520;50.954;6.968;2023-12-04T00:35:40;100866.19;;;7.47;47.91
18784;BME280;9520;50.954;6.968;2023-12-04T00:36:02;100870.59;;;7.49;47.52
18784;BME280;9520;50.954;6.968;2023-12-04T00:36:24;100865.34;;;7.45;48.12
18784;BME280;9520;50.954;6.968;2023-12-04T00:36:45;100872.34;;;7.47;47.99
18784;BME280;9520;50.954;6.968;2023-12-04T00:37:07;100855.69;;;7.41;47.56
18784;BME280;9520;50.954;6.968;2023-12-04T00:37:30;100846.97;;;7.45;46.87
18784;BME280;9520;50.954;6.968;2023-12-04T00:37:51;100863.56;;;7.51;47.03
18784;BME280;9520;50.954;6.968;2023-12-04T00:38:14;100866.22;;;7.50;47.25
18784;BME280;9520;50.954;6.968;2023-12-04T00:38:36;100854.84;;;7.49;47.11
18784;BME280;9520;50.954;6.968;2023-12-04T00:38:58;100853.97;;;7.53;47.22
18784;BME280;9520;50.954;6.968;2023-12-04T00:39:20;100833.84;;;7.34;47.64
18784;BME280;9520;50.954;6.968;2023-12-04T00:39:42;100857.47;;;7.49;46.96
18784;BME280;9520;50.954;6.968;2023-12-04T00:40:05;100869.69;;;7.56;46.97
18784;BME280;9520;50.954;6.968;2023-12-04T00:40:27;100856.59;;;7.59;47.37
18784;BME280;9520;50.954;6.968;2023-12-04T00:40:50;100861.84;;;7.53;47.52
18784;BME280;9520;50.954;6.968;2023-12-04T00:41:12;100856.56;;;7.50;47.52
18784;BME280;9520;50.954;6.968;2023-12-04T00:41:34;100863.59;;;7.50;47.26
18784;BME280;9520;50.954;6.968;2023-12-04T00:41:58;100854.81;;;7.31;47.45
18784;BME280;9520;50.954;6.968;2023-12-04T00:42:19;100858.34;;;7.28;47.91
18784;BME280;9520;50.954;6.968;2023-12-04T00:42:41;100860.97;;;7.33;47.61
18784;BME280;9520;50.954;6.968;2023-12-04T00:43:04;100860.06;;;7.40;47.60
18784;BME280;9520;50.954;6.968;2023-12-04T00:43:25;100852.22;;;7.32;47.81
18784;BME280;9520;50.954;6.968;2023-12-04T00:43:48;100844.34;;;7.25;47.83
18784;BME280;9520;50.954;6.968;2023-12-04T00:44:10;100860.06;;;7.40;47.27
18784;BME280;9520;50.954;6.968;2023-12-04T00:44:31;100817.19;;;7.06;47.87
18784;BME280;9520;50.954;6.968;2023-12-04T00:44:54;100851.34;;;7.38;47.83
18784;BME280;9520;50.954;6.968;2023-12-04T00:45:16;100850.47;;;7.42;47.87
18784;BME280;9520;50.954;6.968;2023-12-04T00:45:37;100857.47;;;7.48;47.53
18784;BME280;9520;50.954;6.968;2023-12-04T00:45:59;100832.09;;;7.28;47.70
18784;BME280;9520;50.954;6.968;2023-12-04T00:46:20;100856.56;;;7.41;47.57
18784;BME280;9520;50.954;6.968;2023-12-04T00:46:43;100855.72;;;7.34;47.50
18784;BME280;9520;50.954;6.968;2023-12-04T00:47:05;100852.22;;;7.37;47.64
18784;BME280;9520;50.954;6.968;2023-12-04T00:47:27;100848.72;;;7.35;47.55
18784;BME280;9520;50.954;6.968;2023-12-04T00:47:48;100849.59;;;7.37;47.73
18784;BME280;9520;50.954;6.968;2023-12-04T00:48:10;100846.97;;;7.34;47.79
18784;BME280;9520;50.954;6.968;2023-12-04T00:48:33;100853.94;;;7.36;47.64
18784;BME280;9520;50.954;6.968;2023-12-04T00:48:55;100856.59;;;7.40;47.83
18784;BME280;9520;50.954;6.968;2023-12-04T00:49:16;100851.34;;;7.38;47.61
18784;BME280;9520;50.954;6.968;2023-12-04T00:49:38;100844.34;;;7.37;47.52
18784;BME280;9520;50.954;6.968;2023-12-04T00:50:00;100850.44;;;7.36;47.65
18784;BME280;9520;50.954;6.968;2023-12-04T00:50:21;100848.72;;;7.36;47.90
18784;BME280;9520;50.954;6.968;2023-12-04T00:50:44;100820.75;;;7.25;47.90
18784;BME280;9520;50.954;6.968;2023-12-04T00:51:06;100840.81;;;7.30;47.86
18784;BME280;9520;50.954;6.968;2023-12-04T00:51:28;100852.22;;;7.34;47.67
18784;BME280;9520;50.954;6.968;2023-12-04T00:51:50;100847.84;;;7.39;47.81
18784;BME280;9520;50.954;6.968;2023-12-04T00:52:12;100846.97;;;7.28;47.79
18784;BME280;9520;50.954;6.968;2023-12-04T00:52:34;100843.44;;;7.21;47.76
18784;BME280;9520;50.954;6.968;2023-12-04T00:52:56;100854.81;;;7.20;47.93
18784;BME280;9520;50.954;6.968;2023-12-04T00:53:19;100850.44;;;7.16;48.29
18784;BME280;9520;50.954;6.968;2023-12-04T00:53:40;100853.06;;;7.12;48.35
18784;BME280;9520;50.954;6.968;2023-12-04T00:54:02;100849.56;;;7.16;48.46
18784;BME280;9520;50.954;6.968;2023-12-04T00:54:25;100851.34;;;7.20;48.17
18784;BME280;9520;50.954;6.968;2023-12-04T00:54:46;100849.56;;;7.13;48.07
18784;BME280;9520;50.954;6.968;2023-12-04T00:55:08;100837.31;;;7.13;48.34
18784;BME280;9520;50.954;6.968;2023-12-04T00:55:30;100841.69;;;7.10;48.27
18784;BME280;9520;50.954;6.968;2023-12-04T00:55:51;100837.31;;;7.03;48.37
18784;BME280;9520;50.954;6.968;2023-12-04T00:56:14;100853.03;;;7.06;48.50
18784;BME280;9520;50.954;6.968;2023-12-04T00:56:37;100845.19;;;7.12;48.41
18784;BME280;9520;50.954;6.968;2023-12-04T00:56:59;100838.22;;;7.20;48.17
18784;BME280;9520;50.954;6.968;2023-12-04T00:57:21;100841.72;;;7.25;48.10
18784;BME280;9520;50.954;6.968;2023-12-04T00:57:43;100839.06;;;7.31;48.46
18784;BME280;9520;50.954;6.968;2023-12-04T00:58:04;100835.59;;;7.32;47.93
18784;BME280;9520;50.954;6.968;2023-12-04T00:58:27;100837.34;;;7.36;48.04
18784;BME280;9520;50.954;6.968;2023-12-04T00:58:48;100823.34;;;7.22;47.84
18784;BME280;9520;50.954;6.968;2023-12-04T00:59:10;100843.47;;;7.20;47.78
18784;BME280;9520;50.954;6.968;2023-12-04T00:59:32;100838.19;;;7.09;47.80
18784;BME280;9520;50.954;6.968;2023-12-04T00:59:54;100786.59;;;6.91;47.98
18784;BME280;9520;50.954;6.968;2023-12-04T01:00:17;100834.69;;;7.25;48.21
18784;BME280;9520;50.954;6.968;2023-12-04T01:00:38;100827.72;;;7.32;47.80
18784;BME280;9520;50.954;6.968;2023-12-04T01:01:00;100826.84;;;7.28;47.61
18784;BME280;9520;50.954;6.968;2023-12-04T01:01:22;100827.75;;;7.35;47.52
18784;BME280;9520;50.954;6.968;2023-12-04T01:01:43;100816.38;;;7.34;47.57
18784;BME280;9520;50.954;6.968;2023-12-04T01:02:06;100827.72;;;7.27;47.27
18784;BME280;9520;50.954;6.968;2023-12-04T01:02:29;100827.72;;;7.33;47.32
18784;BME280;9520;50.954;6.968;2023-12-04T01:02:52;100826.84;;;7.41;47.24
18784;BME280;9520;50.954;6.968;2023-12-04T01:03:13;100825.97;;;7.37;47.23
18784;BME280;9520;50.954;6.968;2023-12-04T01:03:35;100825.09;;;7.38;47.72
18784;BME280;9520;50.954;6.968;2023-12-04T01:03:57;100824.25;;;7.30;48.01
18784;BME280;9520;50.954;6.968;2023-12-04T01:04:19;100818.97;;;7.25;47.90
18784;BME280;9520;50.954;6.968;2023-12-04T01:04:41;100821.59;;;7.24;47.68
18784;BME280;9520;50.954;6.968;2023-12-04T01:05:03;100824.19;;;7.25;47.42
18784;BME280;9520;50.954;6.968;2023-12-04T01:05:25;100828.59;;;7.28;47.64
18784;BME280;9520;50.954;6.968;2023-12-04T01:05:47;100818.09;;;7.31;47.72
18784;BME280;9520;50.954;6.968;2023-12-04T01:06:20;100825.13;;;7.35;47.00
18784;BME280;9520;50.954;6.968;2023-12-04T01:06:42;100820.72;;;7.35;47.23
18784;BME280;9520;50.954;6.968;2023-12-04T01:07:03;100825.09;;;7.41;47.26
18784;BME280;9520;50.954;6.968;2023-12-04T01:07:25;100812.84;;;7.35;47.59
18784;BME280;9520;50.954;6.968;2023-12-04T01:07:47;100819.84;;;7.41;47.11
18784;BME280;9520;50.954;6.968;2023-12-04T01:08:09;100822.47;;;7.38;47.09
18784;BME280;9520;50.954;6.968;2023-12-04T01:08:32;100824.22;;;7.31;47.61
18784;BME280;9520;50.954;6.968;2023-12-04T01:08:55;100819.00;;;7.39;47.48
18784;BME280;9520;50.954;6.968;2023-12-04T01:09:17;100825.13;;;7.44;47.69
18784;BME280;9520;50.954;6.968;2023-12-04T01:09:38;100798.84;;;7.26;47.44
18784;BME280;9520;50.954;6.968;2023-12-04T01:10:00;100817.22;;;7.43;47.33
18784;BME280;9520;50.954;6.968;2023-12-04T01:10:23;100820.72;;;7.43;47.11
18784;BME280;9520;50.954;6.968;2023-12-04T01:10:45;100820.72;;;7.38;47.33
18784;BME280;9520;50.954;6.968;2023-12-04T01:11:07;100819.88;;;7.35;47.34
18784;BME280;9520;50.954;6.968;2023-12-04T01:11:29;100819.88;;;7.40;47.49
18784;BME280;9520;50.954;6.968;2023-12-04T01:11:51;100827.72;;;7.46;47.48
18784;BME280;9520;50.954;6.968;2023-12-04T01:12:14;100823.34;;;7.38;47.55
18784;BME280;9520;50.954;6.968;2023-12-04T01:12:36;100817.25;;;7.40;47.44
18784;BME280;9520;50.954;6.968;2023-12-04T01:12:58;100821.59;;;7.45;47.40
18784;BME280;9520;50.954;6.968;2023-12-04T01:13:19;100815.47;;;7.40;47.42
18784;BME280;9520;50.954;6.968;2023-12-04T01:13:41;100821.63;;;7.39;47.28
18784;BME280;9520;50.954;6.968;2023-12-04T01:14:02;100823.34;;;7.40;47.11
18784;BME280;9520;50.954;6.968;2023-12-04T01:14:25;100822.50;;;7.40;46.86
18784;BME280;9520;50.954;6.968;2023-12-04T01:14:47;100825.97;;;7.31;46.89
18784;BME280;9520;50.954;6.968;2023-12-04T01:15:09;100822.47;;;7.33;46.63
18784;BME280;9520;50.954;6.968;2023-12-04T01:15:31;100817.22;;;7.33;46.91
18784;BME280;9520;50.954;6.968;2023-12-04T01:15:52;100805.88;;;7.24;46.69
18784;BME280;9520;50.954;6.968;2023-12-04T01:16:15;100819.88;;;7.35;46.66
18784;BME280;9520;50.954;6.968;2023-12-04T01:16:38;100773.50;;;7.02;46.95
18784;BME280;9520;50.954;6.968;2023-12-04T01:16:59;100819.84;;;7.26;46.93
18784;BME280;9520;50.954;6.968;2023-12-04T01:17:21;100818.09;;;7.26;47.29
18784;BME280;9520;50.954;6.968;2023-12-04T01:17:43;100817.25;;;7.24;47.15
18784;BME280;9520;50.954;6.968;2023-12-04T01:18:06;100812.84;;;7.22;46.82
18784;BME280;9520;50.954;6.968;2023-12-04T01:18:27;100818.13;;;7.25;47.24
18784;BME280;9520;50.954;6.968;2023-12-04T01:18:49;100811.97;;;7.21;47.00
18784;BME280;9520;50.954;6.968;2023-12-04T01:19:11;100817.22;;;7.26;46.94
18784;BME280;9520;50.954;6.968;2023-12-04T01:19:33;100818.09;;;7.20;47.28
18784;BME280;9520;50.954;6.968;2023-12-04T01:19:55;100817.25;;;7.20;47.26
18784;BME280;9520;50.954;6.968;2023-12-04T01:20:19;100808.50;;;7.24;46.65
18784;BME280;9520;50.954;6.968;2023-12-04T01:20:40;100814.59;;;7.17;47.13
18784;BME280;9520;50.954;6.968;2023-12-04T01:21:02;100823.34;;;7.13;47.07
18784;BME280;9520;50.954;6.968;2023-12-04T01:21:24;100813.72;;;7.10;47.01
18784;BME280;9520;50.954;6.968;2023-12-04T01:21:46;100813.69;;;7.06;46.94
18784;BME280;9520;50.954;6.968;2023-12-04T01:22:07;100816.34;;;7.10;47.18
18784;BME280;9520;50.954;6.968;2023-12-04T01:22:30;100818.09;;;7.17;47.03
18784;BME280;9520;50.954;6.968;2023-12-04T01:22:52;100815.47;;;7.20;47.00
18784;BME280;9520;50.954;6.968;2023-12-04T01:23:14;100818.97;;;7.15;47.06
18784;BME280;9520;50.954;6.968;2023-12-04T01:23:37;100809.31;;;7.02;47.28
18784;BME280;9520;50.954;6.968;2023-12-04T01:23:59;100813.72;;;7.09;46.99
18784;BME280;9520;50.954;6.968;2023-12-04T01:24:20;100805.88;;;7.15;47.10
18784;BME280;9520;50.954;6.968;2023-12-04T01:24:43;100811.97;;;7.14;46.93
18784;BME280;9520;50.954;6.968;2023-12-04T01:25:06;100790.13;;;6.95;47.15
18784;BME280;9520;50.954;6.968;2023-12-04T01:25:28;100813.72;;;6.95;47.14
18784;BME280;9520;50.954;6.968;2023-12-04T01:25:50;100817.19;;;6.89;47.33
18784;BME280;9520;50.954;6.968;2023-12-04T01:26:11;100795.34;;;6.84;47.62
18784;BME280;9520;50.954;6.968;2023-12-04T01:26:34;100815.44;;;6.85;47.83
18784;BME280;9520;50.954;6.968;2023-12-04T01:26:56;100815.41;;;6.82;48.09
18784;BME280;9520;50.954;6.968;2023-12-04T01:27:17;100808.44;;;6.84;47.86
18784;BME280;9520;50.954;6.968;2023-12-04T01:27:39;100815.41;;;6.73;47.93
18784;BME280;9520;50.954;6.968;2023-12-04T01:28:01;100816.28;;;6.74;48.07
18784;BME280;9520;50.954;6.968;2023-12-04T01:28:24;100809.31;;;6.80;48.22
18784;BME280;9520;50.954;6.968;2023-12-04T01:28:45;100807.56;;;6.85;47.90
18784;BME280;9520;50.954;6.968;2023-12-04T01:29:07;100790.09;;;6.80;47.85
18784;BME280;9520;50.954;6.968;2023-12-04T01:30:15;100812.78;;;6.79;47.71
18784;BME280;9520;50.954;6.968;2023-12-04T01:30:38;100814.56;;;6.83;47.85
18784;BME280;9520;50.954;6.968;2023-12-04T01:30:59;100808.41;;;6.86;47.83
18784;BME280;9520;50.954;6.968;2023-12-04T01:31:21;100809.31;;;6.86;47.97
18784;BME280;9520;50.954;6.968;2023-12-04T01:31:43;100798.81;;;6.91;47.87
18784;BME280;9520;50.954;6.968;2023-12-04T01:32:05;100794.44;;;6.91;47.98
18784;BME280;9520;50.954;6.968;2023-12-04T01:32:27;100804.09;;;6.89;47.77
18784;BME280;9520;50.954;6.968;2023-12-04T01:32:50;100811.09;;;7.00;47.88
18784;BME280;9520;50.954;6.968;2023-12-04T01:33:12;100798.84;;;7.02;47.48
18784;BME280;9520;50.954;6.968;2023-12-04T01:33:33;100806.72;;;7.03;47.37
18784;BME280;9520;50.954;6.968;2023-12-04T01:33:55;100805.81;;;7.06;47.54
18784;BME280;9520;50.954;6.968;2023-12-04T01:34:17;100807.59;;;7.04;47.32
18784;BME280;9520;50.954;6.968;2023-12-04T01:34:39;100811.06;;;7.06;47.57
18784;BME280;9520;50.954;6.968;2023-12-04T01:35:01;100803.22;;;7.09;47.52
18784;BME280;9520;50.954;6.968;2023-12-04T01:35:23;100805.84;;;7.09;47.66
18784;BME280;9520;50.954;6.968;2023-12-04T01:35:45;100810.19;;;6.84;47.99
18784;BME280;9520;50.954;6.968;2023-12-04T01:36:08;100814.56;;;6.91;48.15
18784;BME280;9520;50.954;6.968;2023-12-04T01:36:29;100800.56;;;6.92;47.90
18784;BME280;9520;50.954;6.968;2023-12-04T01:36:53;100804.94;;;6.93;47.85
18784;BME280;9520;50.954;6.968;2023-12-04T01:37:16;100808.47;;;6.90;47.74
18784;BME280;9520;50.954;6.968;2023-12-04T01:37:37;100817.19;;;6.85;47.89
18784;BME280;9520;50.954;6.968;2023-12-04T01:37:59;100813.69;;;6.89;47.87
18784;BME280;9520;50.954;6.968;2023-12-04T01:38:21;100813.66;;;6.83;47.58
18784;BME280;9520;50.954;6.968;2023-12-04T01:38:44;100807.56;;;6.84;47.82
18784;BME280;9520;50.954;6.968;2023-12-04T01:39:07;100809.31;;;6.86;47.93
18784;BME280;9520;50.954;6.968;2023-12-04T01:39:28;100801.47;;;6.96;47.72
18784;BME280;9520;50.954;6.968;2023-12-04T01:39:50;100805.84;;;7.03;47.48
18784;BME280;9520;50.954;6.968;2023-12-04T01:40:12;100805.81;;;6.83;47.59
18784;BME280;9520;50.954;6.968;2023-12-04T01:40:34;100790.06;;;6.72;47.36
18784;BME280;9520;50.954;6.968;2023-12-04T01:40:56;100805.84;;;6.90;47.40
18784;BME280;9520;50.954;6.968;2023-12-04T01:41:18;100802.34;;;6.94;47.58
18784;BME280;9520;50.954;6.968;2023-12-04T01:41:40;100801.44;;;6.91;47.46
18784;BME280;9520;50.954;6.968;2023-12-04T01:42:02;100802.31;;;6.96;47.47
18784;BME280;9520;50.954;6.968;2023-12-04T01:42:24;100798.84;;;7.02;47.34
18784;BME280;9520;50.954;6.968;2023-12-04T01:42:45;100804.09;;;6.96;47.24
18784;BME280;9520;50.954;6.968;2023-12-04T01:43:08;100805.81;;;6.84;47.60
18784;BME280;9520;50.954;6.968;2023-12-04T01:43:29;100808.44;;;6.87;47.57
18784;BME280;9520;50.954;6.968;2023-12-04T01:43:51;100798.84;;;6.92;47.58
18784;BME280;9520;50.954;6.968;2023-12-04T01:44:13;100806.69;;;6.80;47.57
18784;BME280;9520;50.954;6.968;2023-12-04T01:44:34;100796.22;;;6.85;47.62
18784;BME280;9520;50.954;6.968;2023-12-04T01:44:57;100803.19;;;6.87;47.83
18784;BME280;9520;50.954;6.968;2023-12-04T01:45:19;100805.78;;;6.86;47.73
18784;BME280;9520;50.954;6.968;2023-12-04T01:45:40;100798.81;;;6.86;47.70
18784;BME280;9520;50.954;6.968;2023-12-04T01:46:03;100799.72;;;6.88;47.51
18784;BME280;9520;50.954;6.968;2023-12-04T01:46:25;100792.69;;;6.78;47.57
18784;BME280;9520;50.954;6.968;2023-12-04T01:46:47;100800.56;;;6.86;47.57
18784;BME280;9520;50.954;6.968;2023-12-04T01:47:09;100802.34;;;6.90;47.53
18784;BME280;9520;50.954;6.968;2023-12-04T01:47:32;100799.72;;;6.88;47.26
18784;BME280;9520;50.954;6.968;2023-12-04T01:47:54;100813.69;;;6.89;47.33
18784;BME280;9520;50.954;6.968;2023-12-04T01:48:17;100798.84;;;6.92;47.34
18784;BME280;9520;50.954;6.968;2023-12-04T01:48:39;100793.59;;;6.99;47.42
18784;BME280;9520;50.954;6.968;2023-12-04T01:49:01;100796.22;;;6.89;47.72
18784;BME280;9520;50.954;6.968;2023-12-04T01:49:25;100793.56;;;6.86;47.69
18784;BME280;9520;50.954;6.968;2023-12-04T01:49:47;100797.94;;;6.92;47.83
18784;BME280;9520;50.954;6.968;2023-12-04T01:50:09;100795.34;;;6.89;47.52
18784;BME280;9520;50.954;6.968;2023-12-04T01:50:31;100799.72;;;6.90;47.73
18784;BME280;9520;50.954;6.968;2023-12-04T01:50:56;100795.34;;;6.93;47.76
18784;BME280;9520;50.954;6.968;2023-12-04T01:51:19;100797.06;;;6.82;47.95
18784;BME280;9520;50.954;6.968;2023-12-04T01:51:42;100797.06;;;6.91;47.96
18784;BME280;9520;50.954;6.968;2023-12-04T01:52:04;100797.09;;;6.99;47.86
18784;BME280;9520;50.954;6.968;2023-12-04T01:52:27;100796.22;;;7.03;47.59
18784;BME280;9520;50.954;6.968;2023-12-04T01:52:52;100786.59;;;6.88;47.50
18784;BME280;9520;50.954;6.968;2023-12-04T01:53:14;100788.34;;;6.83;47.21
18784;BME280;9520;50.954;6.968;2023-12-04T01:53:38;100787.50;;;6.90;47.41
18784;BME280;9520;50.954;6.968;2023-12-04T01:54:03;100788.38;;;6.96;47.72
18784;BME280;9520;50.954;6.968;2023-12-04T01:54:26;100784.84;;;6.97;47.41
18784;BME280;9520;50.954;6.968;2023-12-04T01:54:50;100785.72;;;6.89;47.39
18784;BME280;9520;50.954;6.968;2023-12-04T01:55:11;100785.72;;;6.97;47.26
18784;BME280;9520;50.954;6.968;2023-12-04T01:55:33;100794.47;;;6.90;47.10
18784;BME280;9520;50.954;6.968;2023-12-04T01:55:55;100788.34;;;6.89;47.29
18784;BME280;9520;50.954;6.968;2023-12-04T01:56:17;100786.59;;;6.93;46.99
18784;BME280;9520;50.954;6.968;2023-12-04T01:56:39;100777.88;;;6.99;46.87
18784;BME280;9520;50.954;6.968;2023-12-04T01:57:02;100783.13;;;6.99;47.07
18784;BME280;9520;50.954;6.968;2023-12-04T01:57:24;100786.59;;;7.02;47.34
18784;BME280;9520;50.954;6.968;2023-12-04T01:57:46;100786.63;;;7.13;47.11
18784;BME280;9520;50.954;6.968;2023-12-04T01:58:09;100787.50;;;7.12;47.47
18784;BME280;9520;50.954;6.968;2023-12-04T01:58:32;100791.84;;;7.16;47.14
18784;BME280;9520;50.954;6.968;2023-12-04T01:58:54;100784.88;;;7.12;46.93
18784;BME280;9520;50.954;6.968;2023-12-04T01:59:16;100781.38;;;7.11;47.18
18784;BME280;9520;50.954;6.968;2023-12-04T01:59:38;100783.13;;;7.12;46.92